Terminal Aerodrome Forecast
Issued by NWS Jacksonville, FL

Home | Current Version | Previous Version | Text Only | Print | Product List | Glossary On
Versions: 1 2 3 4 5 6 7 8 9 10 11 12 13 14 15 16 17 18 19 20 21 22 23
000
FTUS42 KJAX 060201 AAC
TAFJAX
TAF AMD
KJAX 060201Z 0602/0624 VRB03KT P6SM VCSH SCT010 BKN050 OVC070
     FM060400 32010G15KT P6SM VCSH SCT010 BKN015 OVC050
     FM061000 01010KT P6SM VCSH SCT008 BKN015 OVC035
     FM061600 03010G15KT 5SM -RA BR BKN007 OVC020=

USA.gov is the U.S. government's official web portal to all federal, state and local government web resources and services.